createdAt,value
2018-11-07T00:01:54.142Z,28.25
2018-11-07T00:04:22.914Z,34.20
2018-11-07T00:06:51.660Z,21.37
2018-11-07T00:09:20.485Z,24.07
2018-11-07T00:11:49.254Z,24.57
2018-11-07T00:14:17.938Z,30.35
2018-11-07T00:16:46.779Z,34.90
2018-11-07T00:19:15.517Z,27.15
2018-11-07T00:21:44.266Z,23.20
2018-11-07T00:24:13.031Z,24.52
2018-11-07T00:26:41.945Z,20.85
2018-11-07T00:29:10.717Z,28.00
2018-11-07T00:31:39.486Z,21.52
2018-11-07T00:34:08.298Z,20.17
2018-11-07T00:36:37.032Z,20.48
2018-11-07T00:39:07.621Z,26.27
2018-11-07T00:41:36.392Z,23.32
2018-11-07T00:44:05.465Z,25.60
2018-11-07T00:46:34.630Z,21.57
2018-11-07T00:49:03.447Z,26.57
2018-11-07T00:51:32.278Z,21.45
2018-11-07T00:54:01.029Z,24.15
2018-11-07T00:56:29.825Z,25.75
2018-11-07T00:58:58.565Z,31.90
2018-11-07T01:01:27.456Z,38.00
2018-11-07T01:04:01.099Z,30.70
2018-11-07T01:06:29.872Z,29.15
2018-11-07T01:08:58.774Z,38.90
2018-11-07T01:11:27.609Z,36.90
2018-11-07T01:13:56.363Z,28.35
2018-11-07T01:16:25.244Z,29.87
2018-11-07T01:18:53.984Z,28.62
2018-11-07T01:21:22.810Z,25.30
2018-11-07T01:23:51.708Z,30.50
2018-11-07T01:26:20.478Z,28.67
2018-11-07T01:28:49.237Z,29.15
2018-11-07T01:31:17.968Z,27.00
2018-11-07T01:33:46.831Z,30.82
2018-11-07T01:36:15.641Z,27.93
2018-11-07T01:38:44.411Z,25.48
2018-11-07T01:41:13.281Z,25.62
2018-11-07T01:43:42.126Z,28.73
2018-11-07T01:46:10.929Z,25.60
2018-11-07T01:48:39.719Z,25.08
2018-11-07T01:51:08.577Z,26.62
2018-11-07T01:53:37.356Z,27.85
2018-11-07T01:56:06.477Z,30.37
2018-11-07T01:58:35.204Z,30.23
2018-11-07T02:01:04.178Z,34.43
2018-11-07T02:03:32.873Z,31.40
2018-11-07T02:06:01.635Z,23.30
2018-11-07T02:08:31.414Z,25.60
2018-11-07T02:11:01.000Z,22.93
2018-11-07T02:13:29.787Z,22.32
2018-11-07T02:15:58.731Z,21.37
2018-11-07T02:18:35.597Z,20.62
2018-11-07T02:21:09.712Z,17.73
2018-11-07T02:23:46.257Z,22.07
2018-11-07T02:26:21.656Z,20.85
2018-11-07T02:28:55.453Z,25.75
2018-11-07T02:31:29.143Z,22.00
2018-11-07T02:34:03.643Z,20.62
2018-11-07T02:36:39.515Z,19.70
2018-11-07T02:39:14.840Z,25.52
2018-11-07T02:41:49.850Z,21.68
2018-11-07T02:44:23.817Z,20.00
2018-11-07T02:46:58.763Z,25.75
2018-11-07T02:49:33.672Z,20.23
2018-11-07T02:52:12.891Z,24.23
2018-11-07T02:54:46.124Z,20.30
2018-11-07T02:57:19.268Z,25.75
2018-11-07T02:59:54.999Z,24.07
2018-11-07T03:02:29.510Z,18.77
2018-11-07T03:05:03.715Z,24.27
2018-11-07T03:07:38.422Z,21.62
2018-11-07T03:10:14.720Z,24.30
2018-11-07T03:12:49.077Z,19.40
2018-11-07T03:15:23.789Z,23.60
2018-11-07T03:17:58.982Z,16.62
2018-11-07T03:20:33.366Z,17.75
2018-11-07T03:23:06.258Z,22.98
2018-11-07T03:25:39.895Z,21.70
2018-11-07T03:28:18.850Z,24.72
2018-11-07T03:30:51.921Z,23.73
2018-11-07T03:33:23.693Z,19.20
2018-11-07T03:35:58.019Z,20.80
2018-11-07T03:38:26.777Z,20.95
2018-11-07T03:40:55.666Z,21.50
2018-11-07T03:43:24.525Z,23.35
2018-11-07T03:45:59.275Z,23.87
2018-11-07T03:48:29.605Z,24.50
2018-11-07T03:50:58.606Z,27.82
2018-11-07T03:53:28.415Z,22.02
2018-11-07T03:55:57.297Z,20.12
2018-11-07T03:58:26.093Z,21.35
2018-11-07T04:00:54.901Z,23.22
2018-11-07T04:03:23.736Z,23.90
2018-11-07T04:05:52.658Z,22.98
2018-11-07T04:08:21.565Z,26.27
2018-11-07T04:10:50.358Z,22.13
2018-11-07T04:13:19.078Z,29.75
2018-11-07T04:15:47.973Z,23.38
2018-11-07T04:18:16.712Z,26.10
2018-11-07T04:20:45.561Z,23.18
2018-11-07T04:23:14.358Z,24.98
2018-11-07T04:25:43.196Z,20.82
2018-11-07T04:28:12.040Z,22.05
2018-11-07T04:30:40.757Z,23.02
2018-11-07T04:33:09.543Z,26.15
2018-11-07T04:35:38.307Z,26.82
2018-11-07T04:38:07.117Z,29.67
2018-11-07T04:40:35.861Z,30.97
2018-11-07T04:43:04.803Z,34.48
2018-11-07T04:45:33.606Z,30.43
2018-11-07T04:48:02.457Z,27.55
2018-11-07T04:50:31.262Z,32.58
2018-11-07T04:53:00.035Z,30.88
2018-11-07T04:55:28.849Z,31.02
2018-11-07T04:57:57.696Z,29.12
2018-11-07T05:00:26.477Z,31.25
2018-11-07T05:02:55.453Z,35.50
2018-11-07T05:05:24.247Z,29.63
2018-11-07T05:07:53.187Z,28.92
2018-11-07T05:10:21.863Z,38.98
2018-11-07T05:12:50.655Z,26.45
2018-11-07T05:15:19.468Z,31.90
2018-11-07T05:17:48.344Z,23.95
2018-11-07T05:20:17.162Z,29.42
2018-11-07T05:22:45.983Z,37.00
2018-11-07T05:25:14.685Z,28.10
2018-11-07T05:27:43.496Z,24.87
2018-11-07T05:30:12.569Z,27.60
2018-11-07T05:32:41.818Z,25.92
2018-11-07T05:35:10.658Z,29.02
2018-11-07T05:37:39.560Z,27.58
2018-11-07T05:40:08.462Z,29.92
2018-11-07T05:42:37.322Z,36.08
2018-11-07T05:45:06.457Z,43.23
2018-11-07T05:47:35.324Z,29.77
2018-11-07T05:50:04.165Z,35.68
2018-11-07T05:52:32.903Z,26.20
2018-11-07T05:55:01.807Z,34.83
2018-11-07T05:57:30.638Z,29.05
2018-11-07T05:59:59.643Z,29.77
2018-11-07T06:02:28.382Z,24.72
2018-11-07T06:04:57.168Z,30.48
2018-11-07T06:07:26.016Z,36.45
2018-11-07T06:09:54.876Z,29.35
2018-11-07T06:12:23.793Z,30.72
2018-11-07T06:14:52.568Z,42.93
2018-11-07T06:17:21.409Z,37.83
2018-11-07T06:19:50.416Z,33.05
2018-11-07T06:22:19.267Z,34.05
2018-11-07T06:24:48.304Z,38.08
2018-11-07T06:27:17.183Z,47.78
2018-11-07T06:29:46.097Z,34.40
2018-11-07T06:32:14.845Z,36.15
2018-11-07T06:34:43.752Z,33.25
2018-11-07T06:37:12.777Z,32.17
2018-11-07T06:39:41.628Z,33.42
2018-11-07T06:42:10.495Z,34.45
2018-11-07T06:44:39.367Z,40.17
2018-11-07T06:47:08.159Z,35.88
2018-11-07T06:49:37.095Z,28.02
2018-11-07T06:52:06.349Z,41.60
2018-11-07T06:54:35.225Z,33.05
2018-11-07T06:57:05.434Z,29.30
2018-11-07T06:59:34.283Z,35.15
2018-11-07T07:02:03.119Z,31.37
2018-11-07T07:04:31.837Z,42.33
2018-11-07T07:14:03.357Z,34.80
2018-11-07T07:16:32.480Z,39.00
2018-11-07T07:19:01.574Z,47.23
2018-11-07T07:21:30.805Z,37.90
2018-11-07T07:24:00.511Z,37.38
2018-11-07T07:26:29.560Z,33.95
2018-11-07T07:28:58.566Z,52.13
2018-11-07T07:31:28.017Z,37.08
2018-11-07T07:33:57.531Z,32.67
2018-11-07T07:36:33.159Z,38.23
2018-11-07T07:39:02.786Z,38.25
2018-11-07T07:41:32.006Z,40.67
2018-11-07T07:44:01.277Z,46.98
2018-11-07T07:46:31.172Z,48.35
2018-11-07T07:49:00.693Z,58.25
2018-11-07T07:51:29.916Z,39.78
2018-11-07T07:54:00.453Z,38.20
2018-11-07T07:56:29.772Z,44.30
2018-11-07T07:58:59.338Z,46.35
2018-11-07T08:01:28.565Z,38.38
2018-11-07T08:03:57.810Z,37.63
2018-11-07T08:06:28.205Z,32.83
2018-11-07T08:08:58.149Z,43.30
2018-11-07T08:11:28.093Z,41.58
2018-11-07T08:13:58.892Z,47.17
2018-11-07T08:16:28.692Z,35.08
2018-11-07T08:18:58.622Z,47.15
2018-11-07T08:21:28.844Z,41.53
2018-11-07T08:23:59.943Z,49.80
2018-11-07T08:26:30.399Z,42.15
2018-11-07T08:29:00.562Z,46.58
2018-11-07T08:31:29.869Z,37.83
2018-11-07T08:33:59.013Z,44.15
2018-11-07T08:36:28.364Z,46.88
2018-11-07T08:38:57.556Z,31.70
2018-11-07T08:41:26.513Z,43.57
2018-11-07T08:43:55.413Z,64.70
2018-11-07T08:46:24.918Z,50.67
2018-11-07T08:48:54.624Z,45.53
2018-11-07T08:51:23.637Z,36.73
2018-11-07T08:53:53.524Z,45.27
2018-11-07T08:56:23.265Z,51.07
2018-11-07T08:58:52.523Z,38.00
2018-11-07T09:01:22.808Z,28.50
2018-11-07T09:03:54.680Z,37.80
2018-11-07T09:06:24.760Z,43.70
2018-11-07T09:08:55.196Z,29.10
2018-11-07T09:11:26.798Z,33.13
2018-11-07T09:14:05.678Z,30.53
2018-11-07T09:16:35.545Z,35.67
2018-11-07T09:19:04.689Z,22.80
2018-11-07T09:21:33.562Z,36.13
2018-11-07T09:24:11.691Z,27.63
2018-11-07T09:26:42.036Z,36.53
2018-11-07T09:29:12.483Z,47.63
2018-11-07T09:31:41.828Z,32.10
2018-11-07T09:34:11.001Z,31.60
2018-11-07T09:36:40.037Z,42.00
2018-11-07T09:39:11.031Z,31.90
2018-11-07T09:41:39.954Z,34.77
2018-11-07T09:44:08.821Z,26.40
2018-11-07T09:46:38.674Z,51.70
2018-11-07T09:49:09.891Z,31.23
2018-11-07T09:51:38.987Z,37.70
2018-11-07T09:54:08.149Z,29.27
2018-11-07T09:56:38.160Z,30.00
2018-11-07T09:59:07.180Z,47.43
2018-11-07T10:01:36.846Z,34.43
2018-11-07T10:04:07.238Z,32.93
2018-11-07T10:06:36.830Z,30.67
2018-11-07T10:09:09.474Z,24.33
2018-11-07T10:11:38.526Z,29.43
2018-11-07T10:14:07.948Z,37.47
2018-11-07T10:16:38.263Z,35.90
2018-11-07T10:19:07.335Z,30.73
2018-11-07T10:21:36.062Z,24.40
2018-11-07T10:24:05.012Z,25.63
2018-11-07T10:26:40.186Z,31.53
2018-11-07T10:29:09.260Z,34.00
2018-11-07T10:31:39.169Z,30.50
2018-11-07T10:34:09.105Z,22.47
2018-11-07T10:36:38.888Z,25.23
2018-11-07T10:39:10.460Z,27.13
2018-11-07T10:41:42.216Z,17.50
2018-11-07T10:44:15.636Z,23.90
2018-11-07T10:46:44.829Z,38.93
2018-11-07T10:49:24.355Z,40.90
2018-11-07T10:51:53.471Z,27.50
2018-11-07T10:54:23.362Z,33.93
2018-11-07T10:56:52.209Z,40.50
2018-11-07T10:59:21.085Z,28.87
2018-11-07T11:01:55.726Z,33.90
2018-11-07T11:04:25.023Z,27.13
2018-11-07T11:06:55.412Z,26.10
2018-11-07T11:09:25.576Z,33.63
2018-11-07T11:11:55.280Z,57.33
2018-11-07T11:14:50.318Z,23.70
2018-11-07T11:17:20.338Z,24.40
2018-11-07T11:20:03.441Z,19.13
2018-11-07T11:22:38.647Z,25.30
2018-11-07T11:25:08.213Z,32.23
2018-11-07T11:27:37.166Z,29.63
2018-11-07T11:30:07.122Z,29.03
2018-11-07T11:32:36.335Z,24.83
2018-11-07T11:35:07.414Z,36.83
2018-11-07T11:37:37.054Z,22.83
2018-11-07T11:40:21.824Z,26.30
2018-11-07T11:42:50.719Z,48.53
2018-11-07T11:45:19.509Z,40.93
2018-11-07T11:47:48.565Z,34.53
2018-11-07T11:50:18.534Z,25.97
2018-11-07T11:52:48.355Z,27.27
2018-11-07T11:55:17.199Z,24.50
2018-11-07T11:57:46.495Z,21.20
2018-11-07T12:00:19.740Z,33.80
2018-11-07T12:02:48.907Z,33.13
2018-11-07T12:05:18.549Z,27.40
2018-11-07T12:07:47.345Z,25.90
2018-11-07T12:10:19.236Z,18.73
2018-11-07T12:12:49.334Z,22.50
2018-11-07T12:15:19.077Z,33.17
2018-11-07T12:17:47.989Z,20.40
2018-11-07T12:20:16.865Z,23.43
2018-11-07T12:22:46.089Z,22.10
2018-11-07T12:25:15.558Z,27.30
2018-11-07T12:27:44.642Z,23.23
2018-11-07T12:30:16.450Z,19.43
2018-11-07T12:32:46.625Z,27.10
2018-11-07T12:35:16.251Z,16.03
2018-11-07T12:37:46.021Z,31.27
2018-11-07T12:40:15.350Z,21.93
2018-11-07T12:42:44.222Z,26.47
2018-11-07T12:45:14.618Z,35.90
2018-11-07T12:47:43.491Z,19.80
2018-11-07T12:50:18.861Z,24.37
2018-11-07T12:52:47.912Z,25.07
2018-11-07T12:55:17.316Z,20.90
2018-11-07T12:57:46.128Z,18.83
2018-11-07T13:00:17.503Z,17.87
2018-11-07T13:02:48.153Z,21.20
2018-11-07T13:05:18.291Z,17.77
2018-11-07T13:07:48.453Z,16.67
2018-11-07T13:10:18.480Z,13.20
2018-11-07T13:12:47.929Z,27.40
2018-11-07T13:15:17.300Z,19.63
2018-11-07T13:17:46.863Z,19.20
2018-11-07T13:20:17.921Z,30.03
2018-11-07T13:22:48.051Z,20.63
2018-11-07T13:25:17.521Z,15.63
2018-11-07T13:27:46.441Z,25.10
2018-11-07T13:30:17.636Z,13.43
2018-11-07T13:32:47.934Z,14.23
2018-11-07T13:35:18.313Z,19.87
2018-11-07T13:37:49.178Z,13.77
2018-11-07T13:40:22.096Z,10.40
2018-11-07T13:42:53.471Z,25.03
2018-11-07T13:45:23.981Z,12.63
2018-11-07T13:47:54.731Z,16.13
2018-11-07T13:50:24.642Z,12.43
2018-11-07T13:52:54.342Z,9.40
2018-11-07T13:55:24.658Z,12.07
2018-11-07T13:57:54.287Z,13.43
2018-11-07T14:00:24.399Z,9.80
2018-11-07T14:02:54.325Z,17.73
2018-11-07T14:05:23.708Z,8.40
2018-11-07T14:07:56.374Z,13.60
2018-11-07T14:10:54.276Z,14.13
2018-11-07T14:13:23.220Z,12.27
2018-11-07T14:15:52.245Z,12.03
2018-11-07T14:18:21.099Z,6.43
2018-11-07T14:20:50.600Z,7.93
2018-11-07T14:23:20.610Z,16.30
2018-11-07T14:25:50.612Z,8.73
2018-11-07T14:28:23.236Z,7.67
2018-11-07T14:30:55.609Z,11.47
2018-11-07T14:33:36.364Z,7.70
2018-11-07T14:36:05.750Z,16.50
2018-11-07T14:38:34.923Z,12.97
2018-11-07T14:41:06.970Z,12.80
2018-11-07T14:43:36.335Z,9.67
2018-11-07T14:46:05.617Z,14.03
2018-11-07T14:48:45.253Z,9.53
2018-11-07T14:51:14.144Z,17.67
2018-11-07T14:53:43.179Z,8.67
2018-11-07T14:56:13.852Z,12.67
2018-11-07T14:58:44.161Z,11.17
2018-11-07T15:01:16.332Z,11.30
2018-11-07T15:03:46.502Z,7.03
2018-11-07T15:06:16.013Z,12.50
2018-11-07T15:08:45.209Z,11.05
2018-11-07T15:11:14.207Z,10.23
2018-11-07T15:13:43.499Z,7.90
2018-11-07T15:16:15.006Z,8.50
2018-11-07T15:18:44.538Z,31.70
2018-11-07T15:21:13.497Z,10.50
2018-11-07T15:23:42.618Z,10.83
2018-11-07T15:26:12.429Z,16.23
2018-11-07T15:28:41.520Z,13.03
2018-11-07T15:31:10.694Z,7.67
2018-11-07T15:33:39.554Z,14.15
2018-11-07T15:36:08.939Z,14.87
2018-11-07T15:38:39.071Z,17.98
2018-11-07T15:41:08.321Z,18.30
2018-11-07T15:43:38.210Z,22.10
2018-11-07T15:46:07.553Z,16.95
2018-11-07T15:48:36.608Z,16.87
2018-11-07T15:51:10.774Z,9.10
2018-11-07T15:53:40.197Z,10.13
2018-11-07T15:56:09.407Z,17.10
2018-11-07T15:58:40.038Z,11.35
2018-11-07T16:01:09.219Z,16.52
2018-11-07T16:03:43.914Z,13.28
2018-11-07T16:06:12.923Z,14.35
2018-11-07T16:08:41.874Z,11.50
2018-11-07T16:11:10.842Z,13.30
2018-11-07T16:13:39.957Z,18.12
2018-11-07T16:16:08.962Z,11.33
2018-11-07T16:18:38.452Z,19.00
2018-11-07T16:21:08.272Z,13.38
2018-11-07T16:23:38.194Z,15.23
2018-11-07T16:26:17.826Z,12.23
2018-11-07T16:28:47.494Z,15.40
2018-11-07T16:31:17.059Z,10.95
2018-11-07T16:33:47.033Z,12.95
2018-11-07T16:36:16.476Z,13.10
2018-11-07T16:38:45.827Z,12.03
2018-11-07T16:41:14.727Z,11.83
2018-11-07T16:43:44.302Z,13.88
2018-11-07T16:46:13.454Z,12.93
2018-11-07T16:48:42.427Z,14.75
2018-11-07T16:51:11.381Z,17.23
2018-11-07T16:53:40.613Z,13.40
2018-11-07T16:56:09.946Z,11.08
2018-11-07T16:58:39.216Z,12.53
2018-11-07T17:01:08.810Z,17.17
2018-11-07T17:03:39.828Z,19.55
2018-11-07T17:06:08.782Z,17.17
2018-11-07T17:08:37.974Z,16.50
2018-11-07T17:11:07.017Z,26.33
2018-11-07T17:13:35.959Z,26.15
2018-11-07T17:16:05.157Z,21.70
2018-11-07T17:18:34.173Z,15.93
2018-11-07T17:21:03.297Z,15.60
2018-11-07T17:23:32.666Z,16.42
2018-11-07T17:26:02.900Z,14.28
2018-11-07T17:28:32.367Z,18.45
2018-11-07T17:31:02.154Z,21.23
2018-11-07T17:33:32.288Z,26.93
2018-11-07T17:36:01.864Z,14.13
2018-11-07T17:38:31.491Z,17.02
2018-11-07T17:41:01.224Z,20.50
2018-11-07T17:43:30.625Z,27.77
2018-11-07T17:45:59.889Z,22.58
2018-11-07T17:48:28.981Z,40.85
2018-11-07T17:50:57.963Z,37.70
2018-11-07T17:53:26.831Z,25.12
2018-11-07T17:55:56.032Z,23.12
2018-11-07T17:58:25.154Z,32.95
2018-11-07T18:00:54.162Z,27.48
2018-11-07T18:03:22.942Z,32.03
2018-11-07T18:05:51.754Z,24.65
2018-11-07T18:08:20.742Z,24.02
2018-11-07T18:10:49.549Z,21.30
2018-11-07T18:13:18.431Z,38.00
2018-11-07T18:15:47.402Z,48.60
2018-11-07T18:18:16.163Z,40.52
2018-11-07T18:20:45.142Z,37.35
2018-11-07T18:23:14.416Z,37.63
2018-11-07T18:25:43.316Z,22.55
2018-11-07T18:28:12.401Z,44.85
2018-11-07T18:30:41.400Z,25.30
2018-11-07T18:33:10.507Z,23.25
2018-11-07T18:35:39.442Z,26.25
2018-11-07T18:38:08.372Z,24.90
2018-11-07T18:40:37.217Z,22.10
2018-11-07T18:43:06.378Z,44.50
2018-11-07T18:45:35.307Z,23.22
2018-11-07T18:48:04.395Z,22.15
2018-11-07T18:50:33.740Z,27.22
2018-11-07T18:53:02.699Z,21.07
2018-11-07T18:55:31.586Z,20.12
2018-11-07T18:58:00.501Z,19.00
2018-11-07T19:00:29.409Z,22.98
2018-11-07T19:02:58.675Z,23.42
2018-11-07T19:05:27.755Z,19.17
2018-11-07T19:07:57.038Z,21.12
2018-11-07T19:10:26.635Z,24.37
2018-11-07T19:12:56.101Z,24.92
2018-11-07T19:15:24.988Z,28.70
2018-11-07T19:17:54.337Z,25.97
2018-11-07T19:20:23.354Z,28.47
2018-11-07T19:22:52.950Z,35.28
2018-11-07T19:25:22.402Z,32.42
2018-11-07T19:27:51.387Z,28.05
2018-11-07T19:30:22.097Z,24.90
2018-11-07T19:32:52.239Z,18.77
2018-11-07T19:35:22.024Z,15.18
2018-11-07T19:37:51.671Z,24.67
2018-11-07T19:40:23.138Z,11.15
2018-11-07T19:42:52.063Z,17.37
2018-11-07T19:45:21.766Z,15.95
2018-11-07T19:47:51.089Z,18.35
2018-11-07T19:50:21.188Z,19.27
2018-11-07T19:52:50.936Z,20.08
2018-11-07T19:55:21.234Z,18.37
2018-11-07T19:57:55.638Z,16.20
2018-11-07T20:00:24.501Z,13.85
2018-11-07T20:02:53.541Z,22.95
2018-11-07T20:05:22.624Z,17.70
2018-11-07T20:07:51.518Z,11.20
2018-11-07T20:10:21.099Z,16.17
2018-11-07T20:12:49.984Z,13.03
2018-11-07T20:15:20.039Z,10.13
2018-11-07T20:17:49.824Z,16.42
2018-11-07T20:20:19.004Z,16.60
2018-11-07T20:22:48.057Z,11.93
2018-11-07T20:25:17.131Z,16.37
2018-11-07T20:27:46.036Z,14.98
2018-11-07T20:30:16.325Z,15.43
2018-11-07T20:32:45.351Z,11.95
2018-11-07T20:35:16.743Z,16.75
2018-11-07T20:37:45.917Z,14.60
2018-11-07T20:40:16.504Z,14.78
2018-11-07T20:42:45.379Z,15.40
2018-11-07T20:45:14.940Z,18.73
2018-11-07T20:47:43.794Z,18.98
2018-11-07T20:50:15.561Z,12.90
2018-11-07T20:52:44.943Z,18.27
2018-11-07T20:55:14.498Z,10.65
2018-11-07T20:57:43.423Z,14.70
2018-11-07T21:00:22.790Z,16.15
2018-11-07T21:02:52.273Z,16.07
2018-11-07T21:05:27.899Z,19.67
2018-11-07T21:08:04.778Z,14.05
2018-11-07T21:10:34.223Z,19.30
2018-11-07T21:13:03.574Z,18.10
2018-11-07T21:15:32.651Z,15.75
2018-11-07T21:18:02.357Z,17.45
2018-11-07T21:20:31.413Z,16.93
2018-11-07T21:23:00.994Z,13.08
2018-11-07T21:25:31.411Z,13.32
2018-11-07T21:28:01.115Z,18.05
2018-11-07T21:30:31.912Z,21.95
2018-11-07T21:33:01.599Z,13.90
2018-11-07T21:35:31.273Z,27.35
2018-11-07T21:38:01.074Z,15.48
2018-11-07T21:40:31.072Z,20.25
2018-11-07T21:43:00.574Z,14.38
2018-11-07T21:45:29.682Z,16.37
2018-11-07T21:47:58.549Z,13.53
2018-11-07T21:50:27.526Z,13.50
2018-11-07T21:52:56.481Z,15.78
2018-11-07T21:55:25.614Z,16.48
2018-11-07T21:57:54.633Z,12.10
2018-11-07T22:00:23.779Z,13.43
2018-11-07T22:02:52.984Z,14.53
2018-11-07T22:05:21.931Z,13.88
2018-11-07T22:07:51.004Z,15.70
2018-11-07T22:10:20.016Z,17.52
2018-11-07T22:12:48.902Z,14.68
2018-11-07T22:15:18.091Z,17.70
2018-11-07T22:17:46.981Z,21.77
2018-11-07T22:20:21.578Z,12.33
2018-11-07T22:22:50.386Z,12.23
2018-11-07T22:25:19.821Z,15.98
2018-11-07T22:27:50.337Z,14.38
2018-11-07T22:30:20.509Z,14.25
2018-11-07T22:32:50.326Z,16.32
2018-11-07T22:35:19.686Z,11.85
2018-11-07T22:37:48.685Z,13.05
2018-11-07T22:40:19.497Z,11.40
2018-11-07T22:42:48.649Z,9.00
2018-11-07T22:45:17.600Z,19.90
2018-11-07T22:47:46.552Z,13.45
2018-11-07T22:50:16.185Z,12.25
2018-11-07T22:52:45.926Z,14.07
2018-11-07T22:55:14.947Z,12.45
2018-11-07T22:57:44.007Z,9.05
2018-11-07T23:00:22.229Z,16.35
2018-11-07T23:02:53.812Z,9.13
2018-11-07T23:05:22.793Z,18.35
2018-11-07T23:07:52.403Z,18.10
2018-11-07T23:10:21.520Z,11.05
2018-11-07T23:12:50.700Z,9.55
2018-11-07T23:15:24.904Z,9.98
2018-11-07T23:17:53.942Z,12.28
2018-11-07T23:20:23.034Z,12.58
2018-11-07T23:22:51.928Z,9.15
2018-11-07T23:25:20.904Z,11.78
2018-11-07T23:27:49.841Z,17.85
2018-11-07T23:30:19.065Z,10.28
